createdAt,value
2022-09-02T00:00:24.093Z,15.41
2022-09-02T00:03:11.893Z,15.62
2022-09-02T00:05:59.611Z,15.56
2022-09-02T00:08:47.203Z,15.86
2022-09-02T00:11:34.794Z,16.41
2022-09-02T00:14:22.557Z,16.27
2022-09-02T00:17:10.227Z,16.01
2022-09-02T00:19:57.899Z,15.99
2022-09-02T00:22:45.491Z,16.78
2022-09-02T00:25:33.122Z,17.30
2022-09-02T00:28:20.698Z,17.72
2022-09-02T00:31:09.399Z,18.08
2022-09-02T00:33:56.995Z,18.32
2022-09-02T00:36:44.589Z,18.53
2022-09-02T00:39:32.176Z,18.75
2022-09-02T00:42:19.771Z,18.86
2022-09-02T00:45:07.350Z,19.01
2022-09-02T00:47:54.951Z,19.02
2022-09-02T00:50:42.520Z,18.99
2022-09-02T00:53:30.109Z,19.16
2022-09-02T00:56:17.689Z,17.70
2022-09-02T00:59:05.286Z,16.49
2022-09-02T01:01:52.919Z,15.81
2022-09-02T01:04:40.584Z,15.25
2022-09-02T01:07:28.165Z,15.12
2022-09-02T01:10:17.761Z,15.21
2022-09-02T01:13:05.335Z,15.49
2022-09-02T01:15:52.987Z,15.50
2022-09-02T01:18:40.619Z,14.88
2022-09-02T01:21:28.238Z,14.87
2022-09-02T01:24:15.827Z,15.17
2022-09-02T01:27:03.433Z,15.34
2022-09-02T01:29:51.053Z,15.47
2022-09-02T01:32:38.631Z,15.40
2022-09-02T01:35:26.331Z,15.92
2022-09-02T01:38:13.913Z,16.18
2022-09-02T01:41:01.523Z,16.12
2022-09-02T01:43:49.121Z,16.09
2022-09-02T01:46:36.811Z,15.61
2022-09-02T01:49:24.466Z,15.53
2022-09-02T01:52:12.069Z,15.33
2022-09-02T01:54:59.655Z,15.28
2022-09-02T01:57:47.262Z,15.31
2022-09-02T02:00:34.897Z,15.55
2022-09-02T02:03:22.621Z,15.00
2022-09-02T02:06:10.254Z,14.67
2022-09-02T02:08:57.848Z,14.51
2022-09-02T02:11:45.463Z,14.06
2022-09-02T02:14:35.084Z,13.87
2022-09-02T02:17:22.702Z,13.93
2022-09-02T02:20:10.399Z,14.15
2022-09-02T02:22:58.007Z,14.43
2022-09-02T02:25:45.582Z,14.81
2022-09-02T02:28:33.191Z,14.72
2022-09-02T02:31:20.860Z,14.60
2022-09-02T02:34:08.489Z,14.12
2022-09-02T02:36:56.092Z,13.90
2022-09-02T02:39:43.700Z,13.98
2022-09-02T02:42:31.275Z,14.15
2022-09-02T02:45:18.971Z,13.82
2022-09-02T02:48:08.557Z,14.40
2022-09-02T02:50:56.182Z,14.74
2022-09-02T02:53:43.754Z,14.39
2022-09-02T02:56:31.378Z,14.34
2022-09-02T02:59:18.972Z,14.53
2022-09-02T03:02:06.700Z,14.51
2022-09-02T03:04:54.422Z,14.90
2022-09-02T03:07:42.055Z,15.30
2022-09-02T03:10:29.628Z,15.00
2022-09-02T03:13:19.323Z,15.40
2022-09-02T03:16:07.097Z,15.46
2022-09-02T03:18:54.772Z,14.68
2022-09-02T03:21:42.371Z,14.66
2022-09-02T03:24:29.971Z,14.08
2022-09-02T03:27:17.561Z,13.98
2022-09-02T03:30:05.157Z,13.95
2022-09-02T03:32:52.752Z,13.68
2022-09-02T03:35:40.353Z,13.99
2022-09-02T03:38:27.926Z,14.03
2022-09-02T03:41:15.531Z,14.10
2022-09-02T03:44:03.099Z,13.98
2022-09-02T03:46:50.717Z,13.59
2022-09-02T03:49:38.308Z,13.45
2022-09-02T03:52:25.908Z,13.67
2022-09-02T03:55:13.495Z,13.81
2022-09-02T03:58:03.423Z,14.15
2022-09-02T04:00:54.183Z,14.05
2022-09-02T04:03:41.799Z,13.90
2022-09-02T04:06:32.619Z,14.08
2022-09-02T04:09:20.560Z,14.17
2022-09-02T04:12:08.147Z,14.30
2022-09-02T04:14:57.503Z,14.69
2022-09-02T04:17:45.421Z,14.57
2022-09-02T04:20:33.037Z,14.03
2022-09-02T04:23:20.639Z,13.96
2022-09-02T04:26:08.240Z,14.24
2022-09-02T04:28:55.832Z,14.30
2022-09-02T04:31:43.486Z,14.17
2022-09-02T04:34:31.117Z,14.09
2022-09-02T04:37:18.700Z,14.00
2022-09-02T04:40:06.325Z,13.85
2022-09-02T04:42:55.257Z,13.71
2022-09-02T04:45:43.339Z,13.91
2022-09-02T04:48:32.992Z,14.08
2022-09-02T04:51:20.676Z,14.27
2022-09-02T04:54:08.395Z,14.83
2022-09-02T04:56:55.999Z,14.52
2022-09-02T04:59:43.613Z,14.10
2022-09-02T05:02:31.289Z,13.89
2022-09-02T05:05:18.934Z,13.98
2022-09-02T05:08:06.551Z,14.20
2022-09-02T05:10:54.133Z,14.49
2022-09-02T05:13:45.753Z,14.49
2022-09-02T05:16:33.348Z,14.77
2022-09-02T05:19:20.955Z,14.97
2022-09-02T05:22:08.561Z,14.86
2022-09-02T05:24:56.189Z,14.90
2022-09-02T05:27:43.794Z,15.30
2022-09-02T05:30:31.434Z,15.60
2022-09-02T05:33:19.042Z,14.92
2022-09-02T05:36:06.664Z,14.90
2022-09-02T05:38:54.276Z,14.97
2022-09-02T05:41:41.929Z,14.93
2022-09-02T05:44:29.543Z,15.42
2022-09-02T05:47:17.124Z,15.97
2022-09-02T05:50:04.841Z,16.09
2022-09-02T05:52:55.414Z,16.68
2022-09-02T05:55:43.044Z,17.06
2022-09-02T05:58:30.670Z,17.37
2022-09-02T06:01:18.302Z,17.58
2022-09-02T06:04:05.907Z,17.96
2022-09-02T06:06:53.527Z,18.14
2022-09-02T06:09:41.135Z,18.40
2022-09-02T06:12:28.755Z,18.69
2022-09-02T06:15:16.351Z,18.79
2022-09-02T06:18:04.025Z,19.00
2022-09-02T06:20:53.192Z,19.06
2022-09-02T06:23:40.813Z,19.22
2022-09-02T06:26:28.422Z,19.17
2022-09-02T06:29:16.064Z,19.52
2022-09-02T06:32:03.727Z,19.37
2022-09-02T06:34:51.354Z,19.80
2022-09-02T06:37:38.991Z,19.74
2022-09-02T06:40:26.700Z,20.02
2022-09-02T06:43:14.403Z,19.99
2022-09-02T06:46:02.097Z,20.23
2022-09-02T06:48:49.782Z,20.14
2022-09-02T06:51:37.393Z,19.93
2022-09-02T06:54:25.052Z,19.80
2022-09-02T06:57:12.645Z,19.24
2022-09-02T07:00:02.381Z,18.97
2022-09-02T07:02:50.332Z,18.83
2022-09-02T07:05:37.965Z,18.67
2022-09-02T07:08:25.567Z,19.34
2022-09-02T07:11:13.169Z,19.15
2022-09-02T07:14:00.785Z,18.40
2022-09-02T07:16:48.398Z,17.37
2022-09-02T07:19:36.036Z,17.91
2022-09-02T07:22:23.659Z,18.43
2022-09-02T07:25:11.261Z,18.55
2022-09-02T07:27:58.850Z,18.42
2022-09-02T07:30:46.524Z,17.80
2022-09-02T07:33:34.158Z,18.61
2022-09-02T07:36:23.753Z,18.29
2022-09-02T07:39:11.331Z,18.09
2022-09-02T07:41:59.038Z,18.64
2022-09-02T07:44:48.090Z,18.36
2022-09-02T07:47:35.714Z,18.68
2022-09-02T07:50:25.309Z,18.77
2022-09-02T07:53:12.929Z,18.82
2022-09-02T07:56:00.550Z,18.28
2022-09-02T07:58:48.167Z,18.33
2022-09-02T08:01:35.847Z,17.90
2022-09-02T08:04:23.549Z,18.03
2022-09-02T08:07:11.166Z,18.31
2022-09-02T08:09:58.856Z,17.92
2022-09-02T08:12:46.458Z,17.50
2022-09-02T08:15:34.073Z,17.79
2022-09-02T08:18:23.705Z,18.41
2022-09-02T08:21:11.303Z,18.35
2022-09-02T08:23:58.931Z,17.92
2022-09-02T08:26:46.540Z,18.27
2022-09-02T08:29:34.176Z,18.89
2022-09-02T08:32:21.784Z,18.93
2022-09-02T08:35:09.403Z,18.61
2022-09-02T08:37:56.995Z,18.55
2022-09-02T08:40:44.671Z,18.62
2022-09-02T08:43:32.338Z,18.55
2022-09-02T08:46:19.991Z,18.62
2022-09-02T08:49:07.631Z,18.15
2022-09-02T08:51:55.228Z,18.84
2022-09-02T08:54:42.862Z,19.35
2022-09-02T08:57:30.473Z,18.82
2022-09-02T09:00:18.097Z,18.17
2022-09-02T09:03:05.728Z,18.91
2022-09-02T09:05:53.365Z,19.20
2022-09-02T09:08:41.354Z,18.75
2022-09-02T09:11:28.977Z,18.05
2022-09-02T09:14:16.604Z,18.52
2022-09-02T09:17:04.206Z,19.06
2022-09-02T09:19:51.837Z,19.30
2022-09-02T09:22:39.557Z,19.40
2022-09-02T09:25:29.169Z,20.23
2022-09-02T09:28:16.832Z,20.38
2022-09-02T09:31:04.416Z,20.10
2022-09-02T09:33:52.045Z,21.24
2022-09-02T09:36:39.663Z,20.62
2022-09-02T09:39:27.278Z,20.99
2022-09-02T09:42:14.903Z,19.94
2022-09-02T09:45:02.515Z,20.10
2022-09-02T09:47:50.160Z,20.69
2022-09-02T09:50:42.308Z,20.57
2022-09-02T09:53:30.032Z,21.04
2022-09-02T09:56:17.631Z,20.18
2022-09-02T09:59:05.239Z,20.70
2022-09-02T10:01:52.871Z,20.48
2022-09-02T10:04:43.345Z,20.70
2022-09-02T10:07:31.411Z,20.92
2022-09-02T10:10:21.416Z,21.20
2022-09-02T10:13:09.097Z,20.54
2022-09-02T10:15:56.815Z,21.19
2022-09-02T10:18:44.743Z,21.42
2022-09-02T10:21:32.452Z,20.78
2022-09-02T10:24:20.073Z,21.10
2022-09-02T10:27:07.720Z,21.26
2022-09-02T10:29:55.370Z,21.13
2022-09-02T10:32:42.995Z,21.23
2022-09-02T10:35:30.605Z,22.02
2022-09-02T10:38:18.251Z,22.65
2022-09-02T10:41:05.893Z,22.48
2022-09-02T10:43:57.319Z,23.59
2022-09-02T10:46:45.199Z,23.16
2022-09-02T10:49:32.858Z,22.97
2022-09-02T10:52:20.447Z,22.52
2022-09-02T10:55:08.075Z,23.21
2022-09-02T10:57:55.683Z,23.77
2022-09-02T11:00:43.407Z,23.62
2022-09-02T11:03:31.082Z,23.93
2022-09-02T11:06:18.742Z,23.74
2022-09-02T11:09:06.342Z,23.71
2022-09-02T11:11:55.908Z,23.77
2022-09-02T11:14:45.366Z,24.19
2022-09-02T11:17:32.983Z,24.45
2022-09-02T11:20:20.901Z,24.55
2022-09-02T11:23:11.933Z,24.64
2022-09-02T11:25:59.911Z,24.89
2022-09-02T11:28:47.514Z,23.96
2022-09-02T11:31:38.876Z,24.26
2022-09-02T11:34:26.869Z,24.32
2022-09-02T11:37:17.992Z,23.22
2022-09-02T11:40:30.529Z,24.11
2022-09-02T11:43:14.865Z,23.25
2022-09-02T11:46:02.637Z,23.49
2022-09-02T11:48:50.228Z,24.16
2022-09-02T11:51:38.104Z,24.06
2022-09-02T11:54:25.732Z,23.71
2022-09-02T11:57:13.331Z,23.70
2022-09-02T12:00:00.916Z,23.52
2022-09-02T12:02:48.520Z,23.07
2022-09-02T12:05:36.180Z,23.04
2022-09-02T12:08:23.839Z,23.10
2022-09-02T12:11:12.640Z,23.53
2022-09-02T12:14:04.103Z,23.18
2022-09-02T12:16:53.586Z,23.20
2022-09-02T12:19:41.279Z,23.30
2022-09-02T12:22:28.847Z,23.30
2022-09-02T12:25:16.545Z,23.19
2022-09-02T12:28:04.145Z,23.38
2022-09-02T12:30:51.744Z,23.20
2022-09-02T12:33:39.344Z,22.46
2022-09-02T12:36:27.242Z,22.62
2022-09-02T12:39:15.960Z,22.40
2022-09-02T12:42:03.907Z,22.00
2022-09-02T12:44:51.519Z,21.79
2022-09-02T12:47:39.113Z,21.88
2022-09-02T12:50:26.715Z,21.30
2022-09-02T12:53:17.960Z,20.04
2022-09-02T12:56:08.133Z,21.31
2022-09-02T12:59:00.226Z,21.60
2022-09-02T13:01:50.125Z,21.22
2022-09-02T13:04:37.853Z,21.09
2022-09-02T13:07:25.495Z,21.22
2022-09-02T13:10:13.077Z,21.97
2022-09-02T13:13:00.680Z,21.31
2022-09-02T13:15:48.332Z,21.78
2022-09-02T13:18:36.022Z,21.41
2022-09-02T13:21:24.027Z,21.45
2022-09-02T13:24:11.641Z,21.19
2022-09-02T13:26:59.314Z,20.89
2022-09-02T13:29:46.913Z,21.48
2022-09-02T13:32:34.502Z,21.49
2022-09-02T13:35:24.385Z,21.80
2022-09-02T13:38:12.239Z,21.66
2022-09-02T13:40:59.861Z,21.51
2022-09-02T13:43:47.556Z,21.92
2022-09-02T13:46:37.163Z,21.73
2022-09-02T13:49:24.806Z,22.09
2022-09-02T13:52:12.381Z,22.22
2022-09-02T13:55:04.572Z,22.30
2022-09-02T13:57:52.153Z,22.81
2022-09-02T14:00:41.874Z,22.42
2022-09-02T14:03:29.691Z,22.95
2022-09-02T14:06:17.807Z,23.14
2022-09-02T14:09:05.422Z,22.89
2022-09-02T14:11:53.049Z,23.21
2022-09-02T14:14:40.660Z,23.55
2022-09-02T14:17:28.276Z,23.95
2022-09-02T14:20:15.873Z,24.22
2022-09-02T14:23:03.478Z,24.58
2022-09-02T14:25:51.101Z,23.94
2022-09-02T14:28:38.688Z,23.91
2022-09-02T14:31:26.320Z,24.11
2022-09-02T14:34:13.938Z,24.12
2022-09-02T14:37:01.598Z,23.75
2022-09-02T14:39:49.239Z,23.93
2022-09-02T14:42:36.965Z,23.63
2022-09-02T14:45:24.534Z,23.60
2022-09-02T14:48:12.227Z,23.22
2022-09-02T14:51:02.522Z,23.27
2022-09-02T14:53:50.548Z,23.39
2022-09-02T14:56:38.131Z,23.54
2022-09-02T14:59:25.717Z,23.36
2022-09-02T15:02:13.300Z,23.45
2022-09-02T15:05:00.939Z,23.62
2022-09-02T15:07:48.596Z,23.90
2022-09-02T15:10:36.179Z,23.79
2022-09-02T15:13:23.789Z,24.20
2022-09-02T15:16:11.463Z,24.36
2022-09-02T15:18:59.278Z,24.62
2022-09-02T15:21:46.888Z,24.76
2022-09-02T15:24:34.500Z,24.96
2022-09-02T15:27:22.092Z,25.05
2022-09-02T15:30:09.694Z,24.99
2022-09-02T15:32:57.322Z,24.84
2022-09-02T15:35:44.922Z,24.96
2022-09-02T15:38:32.538Z,25.15
2022-09-02T15:41:20.116Z,25.18
2022-09-02T15:44:07.807Z,25.07
2022-09-02T15:46:56.001Z,24.48
2022-09-02T15:49:43.605Z,24.22
2022-09-02T15:52:31.209Z,24.25
2022-09-02T15:55:18.821Z,24.33
2022-09-02T15:58:06.439Z,23.64
2022-09-02T16:00:54.018Z,24.24
2022-09-02T16:03:41.850Z,24.27
2022-09-02T16:06:31.864Z,24.11
2022-09-02T16:09:19.468Z,24.04
2022-09-02T16:12:07.054Z,23.26
2022-09-02T16:14:54.664Z,22.32
2022-09-02T16:17:42.262Z,21.28
2022-09-02T16:20:29.870Z,21.64
2022-09-02T16:22:57.139Z,22.15
2022-09-02T16:25:24.413Z,22.57
2022-09-02T16:27:51.710Z,22.35
2022-09-02T16:30:19.014Z,22.09
2022-09-02T16:32:46.300Z,22.56
2022-09-02T16:35:13.572Z,22.78
2022-09-02T16:37:41.245Z,22.34
2022-09-02T16:40:10.145Z,22.97
2022-09-02T16:42:38.426Z,23.21
2022-09-02T16:45:05.833Z,23.35
2022-09-02T16:47:33.132Z,22.99
2022-09-02T16:50:00.614Z,23.44
2022-09-02T16:52:27.879Z,24.06
2022-09-02T16:54:55.179Z,24.28
2022-09-02T16:57:22.462Z,24.20
2022-09-02T16:59:49.844Z,24.31
2022-09-02T17:02:17.174Z,23.91
2022-09-02T17:04:44.495Z,23.74
2022-09-02T17:07:11.784Z,23.82
2022-09-02T17:09:42.505Z,23.35
2022-09-02T17:12:09.821Z,23.29
2022-09-02T17:14:37.095Z,23.13
2022-09-02T17:17:04.457Z,22.97
2022-09-02T17:19:32.574Z,22.83
2022-09-02T17:21:59.926Z,22.65
2022-09-02T17:24:27.191Z,22.44
2022-09-02T17:26:54.487Z,22.34
2022-09-02T17:29:47.545Z,22.37
2022-09-02T17:32:08.994Z,22.47
2022-09-02T17:34:36.274Z,22.03
2022-09-02T17:37:03.561Z,21.46
2022-09-02T17:39:30.977Z,21.25
2022-09-02T17:42:00.329Z,20.44
2022-09-02T17:44:28.070Z,19.92
2022-09-02T17:46:56.252Z,19.55
2022-09-02T17:49:23.524Z,19.67
2022-09-02T17:51:50.917Z,19.83
2022-09-02T17:54:18.186Z,19.56
2022-09-02T17:56:45.456Z,19.57
2022-09-02T17:59:12.736Z,19.56
2022-09-02T18:01:40.109Z,19.32
2022-09-02T18:04:07.504Z,19.03
2022-09-02T18:06:34.831Z,19.16
2022-09-02T18:09:02.134Z,19.05
2022-09-02T18:11:29.437Z,19.09
2022-09-02T18:13:56.770Z,19.32
2022-09-02T18:16:24.103Z,19.53
2022-09-02T18:18:51.434Z,19.96
2022-09-02T18:21:18.709Z,19.45
2022-09-02T18:23:46.028Z,18.91
2022-09-02T18:26:13.291Z,19.01
2022-09-02T18:28:41.457Z,19.34
2022-09-02T18:31:08.840Z,19.41
2022-09-02T18:33:36.175Z,18.91
2022-09-02T18:36:03.465Z,18.84
2022-09-02T18:38:30.770Z,18.62
2022-09-02T18:40:58.053Z,18.96
2022-09-02T18:43:25.349Z,18.89
2022-09-02T18:45:52.688Z,18.52
2022-09-02T18:48:19.999Z,19.42
2022-09-02T18:50:51.640Z,20.06
2022-09-02T18:53:21.634Z,20.16
2022-09-02T18:55:48.919Z,20.41
2022-09-02T18:58:16.333Z,20.57
2022-09-02T19:00:43.680Z,20.37
2022-09-02T19:03:10.983Z,20.67
2022-09-02T19:05:38.380Z,20.70
2022-09-02T19:08:05.668Z,20.28
2022-09-02T19:10:33.134Z,19.93
2022-09-02T19:13:00.442Z,19.29
2022-09-02T19:15:27.719Z,19.03
2022-09-02T19:17:55.559Z,18.37
2022-09-02T19:20:23.028Z,18.05
2022-09-02T19:22:50.313Z,17.76
2022-09-02T19:25:19.561Z,17.59
2022-09-02T19:27:46.870Z,17.82
2022-09-02T19:30:14.165Z,18.20
2022-09-02T19:32:41.677Z,18.47
2022-09-02T19:35:08.989Z,19.00
2022-09-02T19:37:44.255Z,19.18
2022-09-02T19:40:12.134Z,19.13
2022-09-02T19:42:39.545Z,18.92
2022-09-02T19:45:06.882Z,18.92
2022-09-02T19:50:21.403Z,17.63
2022-09-02T19:52:48.691Z,17.38
2022-09-02T19:55:15.968Z,17.46
2022-09-02T19:57:43.273Z,17.44
2022-09-02T20:00:10.570Z,17.68
2022-09-02T20:02:37.864Z,17.71
2022-09-02T20:05:05.168Z,17.73
2022-09-02T20:07:32.445Z,17.74
2022-09-02T20:09:59.732Z,17.76
2022-09-02T20:12:27.036Z,17.64
2022-09-02T20:14:54.317Z,17.54
2022-09-02T20:17:21.617Z,17.45
2022-09-02T20:19:48.893Z,17.54
2022-09-02T20:22:16.171Z,17.66
2022-09-02T20:24:43.481Z,17.72
2022-09-02T20:27:10.774Z,17.78
2022-09-02T20:29:38.064Z,17.79
2022-09-02T20:32:05.355Z,17.77
2022-09-02T20:34:32.762Z,17.77
2022-09-02T20:37:00.041Z,17.80
2022-09-02T20:39:27.449Z,17.81
2022-09-02T20:41:54.822Z,18.13
2022-09-02T20:44:23.528Z,18.16
2022-09-02T20:46:51.074Z,18.03
2022-09-02T20:49:18.415Z,18.12
2022-09-02T20:51:45.699Z,18.53
2022-09-02T20:54:12.967Z,19.19
2022-09-02T20:56:40.271Z,19.34
2022-09-02T20:59:07.668Z,19.77
2022-09-02T21:01:35.003Z,20.05
2022-09-02T21:04:02.339Z,19.72
2022-09-02T21:06:29.717Z,19.76
2022-09-02T21:08:57.027Z,19.76
2022-09-02T21:11:24.658Z,19.17
2022-09-02T21:13:51.958Z,19.05
2022-09-02T21:16:19.688Z,18.03
2022-09-02T21:18:47.378Z,17.30
2022-09-02T21:21:14.683Z,17.46
2022-09-02T21:23:41.974Z,17.50
2022-09-02T21:26:09.253Z,17.57
2022-09-02T21:28:36.645Z,17.91
2022-09-02T21:31:03.977Z,18.16
2022-09-02T21:33:31.290Z,18.82
2022-09-02T21:35:58.597Z,19.40
2022-09-02T21:38:26.056Z,18.97
2022-09-02T21:40:53.402Z,19.23
2022-09-02T21:43:20.697Z,19.62
2022-09-02T21:45:47.977Z,19.48
2022-09-02T21:48:15.261Z,19.50
2022-09-02T21:50:42.600Z,19.75
2022-09-02T21:53:09.889Z,19.96
2022-09-02T21:55:37.156Z,19.13
2022-09-02T21:58:04.453Z,18.70
2022-09-02T22:00:31.771Z,18.58
2022-09-02T22:02:59.099Z,18.59
2022-09-02T22:05:26.405Z,19.32
2022-09-02T22:07:53.694Z,19.02
2022-09-02T22:10:20.977Z,19.25
2022-09-02T22:12:52.169Z,18.29
2022-09-02T22:15:19.990Z,18.15
2022-09-02T22:17:47.294Z,17.80
2022-09-02T22:20:14.597Z,17.71
2022-09-02T22:22:41.901Z,17.29
2022-09-02T22:25:09.295Z,16.91
2022-09-02T22:27:36.597Z,17.78
2022-09-02T22:30:05.849Z,18.31
2022-09-02T22:32:34.381Z,18.16
2022-09-02T22:35:01.677Z,18.61
2022-09-02T22:37:28.967Z,18.89
2022-09-02T22:39:56.384Z,19.07
2022-09-02T22:42:23.731Z,19.18
2022-09-02T22:44:51.032Z,19.25
2022-09-02T22:47:19.597Z,19.38
2022-09-02T22:49:46.883Z,19.61
2022-09-02T22:52:14.147Z,19.60
2022-09-02T22:54:41.441Z,19.76
2022-09-02T22:57:08.967Z,19.49
2022-09-02T22:59:36.249Z,19.13
2022-09-02T23:02:05.637Z,19.14
2022-09-02T23:04:32.951Z,19.05
2022-09-02T23:07:01.637Z,18.80
2022-09-02T23:09:28.924Z,18.81
2022-09-02T23:11:56.221Z,19.32
2022-09-02T23:14:23.504Z,19.62
2022-09-02T23:16:50.768Z,19.89
2022-09-02T23:19:18.053Z,20.22
2022-09-02T23:21:45.851Z,20.57
2022-09-02T23:24:13.144Z,20.81
2022-09-02T23:26:40.455Z,20.87
2022-09-02T23:29:07.734Z,20.96
2022-09-02T23:31:35.042Z,21.13
2022-09-02T23:34:02.385Z,21.20
2022-09-02T23:36:29.667Z,21.29
2022-09-02T23:38:56.986Z,21.22
2022-09-02T23:41:24.262Z,21.12
2022-09-02T23:43:51.542Z,21.32
2022-09-02T23:46:19.032Z,21.49
2022-09-02T23:48:48.329Z,21.59
2022-09-02T23:51:15.622Z,21.69
2022-09-02T23:53:42.922Z,21.79
2022-09-02T23:56:10.201Z,21.78
2022-09-02T23:58:37.501Z,21.51
